createdAt,value
2018-08-25T00:00:04.438Z,7.77
2018-08-25T00:02:32.512Z,9.03
2018-08-25T00:05:00.586Z,3.30
2018-08-25T00:07:28.687Z,3.70
2018-08-25T00:09:56.887Z,5.23
2018-08-25T00:12:24.985Z,6.40
2018-08-25T00:14:53.027Z,8.63
2018-08-25T00:17:27.938Z,6.63
2018-08-25T00:19:56.045Z,4.57
2018-08-25T00:24:58.676Z,6.50
2018-08-25T00:27:26.718Z,4.17
2018-08-25T00:29:54.768Z,3.23
2018-08-25T00:32:22.863Z,6.50
2018-08-25T00:34:50.959Z,5.60
2018-08-25T00:37:19.127Z,9.13
2018-08-25T00:39:47.205Z,8.20
2018-08-25T00:42:15.273Z,3.60
2018-08-25T00:44:43.430Z,3.00
2018-08-25T00:47:11.528Z,6.53
2018-08-25T00:49:39.610Z,3.23
2018-08-25T00:52:07.741Z,6.17
2018-08-25T00:54:35.837Z,5.03
2018-08-25T00:57:03.909Z,5.27
2018-08-25T00:59:32.037Z,5.83
2018-08-25T01:02:00.048Z,5.80
2018-08-25T01:04:28.101Z,4.87
2018-08-25T01:06:56.174Z,7.40
2018-08-25T01:09:24.244Z,4.27
2018-08-25T01:11:52.292Z,4.13
2018-08-25T01:14:20.392Z,5.13
2018-08-25T01:16:48.493Z,5.93
2018-08-25T01:19:16.547Z,5.63
2018-08-25T01:21:44.610Z,6.60
2018-08-25T01:24:12.672Z,6.47
2018-08-25T01:26:40.771Z,3.17
2018-08-25T01:29:08.861Z,3.37
2018-08-25T01:31:36.976Z,10.17
2018-08-25T01:34:05.048Z,4.07
2018-08-25T01:36:33.118Z,3.70
2018-08-25T01:39:01.189Z,5.73
2018-08-25T01:41:29.296Z,3.90
2018-08-25T01:43:57.374Z,4.50
2018-08-25T01:46:25.469Z,3.47
2018-08-25T01:48:53.523Z,4.57
2018-08-25T01:51:21.592Z,5.07
2018-08-25T01:53:49.688Z,5.37
2018-08-25T01:56:17.785Z,5.13
2018-08-25T01:58:45.862Z,4.50
2018-08-25T02:01:13.957Z,3.60
2018-08-25T02:03:42.051Z,3.80
2018-08-25T02:06:10.154Z,4.43
2018-08-25T02:08:38.203Z,4.30
2018-08-25T02:11:06.248Z,5.90
2018-08-25T02:13:34.314Z,6.23
2018-08-25T02:16:02.429Z,6.03
2018-08-25T02:18:30.547Z,5.87
2018-08-25T02:20:58.618Z,4.43
2018-08-25T02:23:26.696Z,5.70
2018-08-25T02:25:54.763Z,5.40
2018-08-25T02:28:22.931Z,3.53
2018-08-25T02:30:51.071Z,4.17
2018-08-25T02:33:19.158Z,5.20
2018-08-25T02:35:47.210Z,6.60
2018-08-25T02:38:15.338Z,4.07
2018-08-25T02:40:43.470Z,2.93
2018-08-25T02:43:11.568Z,4.80
2018-08-25T02:45:39.623Z,6.10
2018-08-25T02:48:07.681Z,7.30
2018-08-25T02:50:35.762Z,4.50
2018-08-25T02:53:03.865Z,5.03
2018-08-25T02:55:31.918Z,4.77
2018-08-25T02:57:59.990Z,4.90
2018-08-25T03:00:28.074Z,4.30
2018-08-25T03:02:56.184Z,4.37
2018-08-25T03:05:24.247Z,5.57
2018-08-25T03:07:52.363Z,3.73
2018-08-25T03:10:20.417Z,5.47
2018-08-25T03:12:48.577Z,5.83
2018-08-25T03:15:16.688Z,4.40
2018-08-25T03:17:44.962Z,5.33
2018-08-25T03:20:13.140Z,6.40
2018-08-25T03:22:41.289Z,5.40
2018-08-25T03:25:09.660Z,3.60
2018-08-25T03:27:37.750Z,6.53
2018-08-25T03:30:05.826Z,5.57
2018-08-25T03:32:33.956Z,5.20
2018-08-25T03:35:02.019Z,5.07
2018-08-25T03:37:30.107Z,8.03
2018-08-25T03:39:58.152Z,9.50
2018-08-25T03:42:26.292Z,4.87
2018-08-25T03:44:54.350Z,6.83
2018-08-25T03:47:22.442Z,5.67
2018-08-25T03:49:50.514Z,4.60
2018-08-25T03:52:18.589Z,6.77
2018-08-25T03:54:46.653Z,7.27
2018-08-25T03:57:14.773Z,5.60
2018-08-25T03:59:42.844Z,6.87
2018-08-25T04:02:10.898Z,6.30
2018-08-25T04:04:38.987Z,5.00
2018-08-25T04:07:07.043Z,4.27
2018-08-25T04:09:35.129Z,4.83
2018-08-25T04:12:03.286Z,7.20
2018-08-25T04:14:31.394Z,7.17
2018-08-25T04:16:59.446Z,7.03
2018-08-25T04:19:27.574Z,7.43
2018-08-25T04:21:55.645Z,4.87
2018-08-25T04:24:23.703Z,6.33
2018-08-25T04:26:51.799Z,4.87
2018-08-25T04:29:19.879Z,8.23
2018-08-25T04:31:47.966Z,4.43
2018-08-25T04:34:16.043Z,6.40
2018-08-25T04:36:44.104Z,5.60
2018-08-25T04:39:12.517Z,5.80
2018-08-25T04:41:40.685Z,5.80
2018-08-25T04:44:09.273Z,4.60
2018-08-25T04:46:37.430Z,4.67
2018-08-25T04:49:05.799Z,5.97
2018-08-25T04:51:33.882Z,6.27
2018-08-25T04:54:01.968Z,6.13
2018-08-25T04:56:30.056Z,7.03
2018-08-25T04:58:58.118Z,8.23
2018-08-25T05:01:26.211Z,5.90
2018-08-25T05:03:54.339Z,8.17
2018-08-25T05:06:22.432Z,7.20
2018-08-25T05:08:50.507Z,7.23
2018-08-25T05:11:18.558Z,9.90
2018-08-25T05:13:46.663Z,6.33
2018-08-25T05:16:14.714Z,7.80
2018-08-25T05:18:42.800Z,7.03
2018-08-25T05:21:10.904Z,9.53
2018-08-25T05:23:39.010Z,6.50
2018-08-25T05:26:07.187Z,9.20
2018-08-25T05:28:35.365Z,8.23
2018-08-25T05:31:03.630Z,10.03
2018-08-25T05:33:31.763Z,9.97
2018-08-25T05:35:59.835Z,10.77
2018-08-25T05:38:27.926Z,8.07
2018-08-25T05:40:55.986Z,6.90
2018-08-25T05:43:24.082Z,7.13
2018-08-25T05:45:52.177Z,11.80
2018-08-25T05:48:20.380Z,8.70
2018-08-25T05:50:48.424Z,9.07
2018-08-25T05:53:16.494Z,13.63
2018-08-25T05:55:44.562Z,7.87
2018-08-25T05:58:12.700Z,7.03
2018-08-25T06:00:42.267Z,8.90
2018-08-25T06:03:10.366Z,6.90
2018-08-25T06:05:38.438Z,8.50
2018-08-25T06:08:06.560Z,11.50
2018-08-25T06:10:34.601Z,9.20
2018-08-25T06:13:02.686Z,9.63
2018-08-25T06:15:30.773Z,13.63
2018-08-25T06:17:58.830Z,15.37
2018-08-25T06:20:26.945Z,16.63
2018-08-25T06:22:54.974Z,17.13
2018-08-25T06:25:23.104Z,17.30
2018-08-25T06:27:51.219Z,18.43
2018-08-25T06:30:19.323Z,17.47
2018-08-25T06:32:47.398Z,18.37
2018-08-25T06:35:15.531Z,16.80
2018-08-25T06:37:43.607Z,19.53
2018-08-25T06:40:11.728Z,18.60
2018-08-25T06:42:39.941Z,21.17
2018-08-25T06:45:07.941Z,17.80
2018-08-25T06:47:36.111Z,20.27
2018-08-25T06:50:04.232Z,20.70
2018-08-25T06:52:32.339Z,17.47
2018-08-25T06:55:00.442Z,18.47
2018-08-25T06:57:28.511Z,14.73
2018-08-25T06:59:56.623Z,15.63
2018-08-25T07:02:24.722Z,17.73
2018-08-25T07:04:52.795Z,20.87
2018-08-25T07:07:21.780Z,18.43
2018-08-25T07:09:49.955Z,20.37
2018-08-25T07:12:18.043Z,22.17
2018-08-25T07:14:46.160Z,20.90
2018-08-25T07:17:14.218Z,14.23
2018-08-25T07:19:42.332Z,17.13
2018-08-25T07:22:10.499Z,20.70
2018-08-25T07:24:38.627Z,19.57
2018-08-25T07:27:06.710Z,15.27
2018-08-25T07:29:34.818Z,14.67
2018-08-25T07:32:03.009Z,18.60
2018-08-25T07:34:31.109Z,21.03
2018-08-25T07:36:59.300Z,19.03
2018-08-25T07:39:27.463Z,17.30
2018-08-25T07:41:55.566Z,19.20
2018-08-25T07:44:23.678Z,21.50
2018-08-25T07:46:52.979Z,22.40
2018-08-25T07:49:21.410Z,27.13
2018-08-25T07:51:49.559Z,22.27
2018-08-25T07:54:17.634Z,23.93
2018-08-25T07:56:45.754Z,27.23
2018-08-25T07:59:13.908Z,24.50
2018-08-25T08:01:41.963Z,23.90
2018-08-25T08:04:10.096Z,24.97
2018-08-25T08:06:38.229Z,27.33
2018-08-25T08:09:07.996Z,27.60
2018-08-25T08:11:36.278Z,28.30
2018-08-25T08:14:04.419Z,26.07
2018-08-25T08:16:32.507Z,27.17
2018-08-25T08:19:00.631Z,28.97
2018-08-25T08:21:28.741Z,27.17
2018-08-25T08:23:56.819Z,24.07
2018-08-25T08:26:24.953Z,23.47
2018-08-25T08:28:53.056Z,16.80
2018-08-25T08:31:21.135Z,14.13
2018-08-25T08:33:49.593Z,25.37
2018-08-25T08:36:17.730Z,29.87
2018-08-25T08:38:45.828Z,33.67
2018-08-25T08:41:13.907Z,22.60
2018-08-25T08:43:42.007Z,14.17
2018-08-25T08:46:10.143Z,17.17
2018-08-25T08:48:38.560Z,21.00
2018-08-25T08:51:07.201Z,18.87
2018-08-25T08:53:35.352Z,21.47
2018-08-25T08:56:03.495Z,18.30
2018-08-25T08:58:31.550Z,15.30
2018-08-25T09:00:59.731Z,18.73
2018-08-25T09:03:27.866Z,24.13
2018-08-25T09:05:55.950Z,21.23
2018-08-25T09:08:24.092Z,14.97
2018-08-25T09:10:52.164Z,17.17
2018-08-25T09:13:20.224Z,13.00
2018-08-25T09:15:48.339Z,12.63
2018-08-25T09:18:16.478Z,18.70
2018-08-25T09:20:44.595Z,12.30
2018-08-25T09:23:12.662Z,13.97
2018-08-25T09:25:40.820Z,13.50
2018-08-25T09:28:08.990Z,13.07
2018-08-25T09:30:37.061Z,13.40
2018-08-25T09:33:05.353Z,13.37
2018-08-25T09:35:33.573Z,10.60
2018-08-25T09:38:01.761Z,15.37
2018-08-25T09:40:36.130Z,10.83
2018-08-25T09:43:04.484Z,16.00
2018-08-25T09:45:32.545Z,10.30
2018-08-25T09:48:00.707Z,11.63
2018-08-25T09:50:28.787Z,13.03
2018-08-25T09:52:56.874Z,16.57
2018-08-25T09:55:24.936Z,15.47
2018-08-25T09:57:53.082Z,15.07
2018-08-25T10:00:21.235Z,13.60
2018-08-25T10:02:49.334Z,10.53
2018-08-25T10:05:17.519Z,10.40
2018-08-25T10:07:45.619Z,12.30
2018-08-25T10:10:13.705Z,11.23
2018-08-25T10:12:41.800Z,14.50
2018-08-25T10:15:09.872Z,14.73
2018-08-25T10:17:37.983Z,16.40
2018-08-25T10:20:06.170Z,8.80
2018-08-25T10:22:34.261Z,10.80
2018-08-25T10:25:02.330Z,12.63
2018-08-25T10:27:30.410Z,24.10
2018-08-25T10:29:58.477Z,10.37
2018-08-25T10:32:26.563Z,11.97
2018-08-25T10:34:54.622Z,12.37
2018-08-25T10:37:22.683Z,9.00
2018-08-25T10:39:50.786Z,11.30
2018-08-25T10:42:18.860Z,14.45
2018-08-25T10:44:47.065Z,11.40
2018-08-25T10:47:15.150Z,10.03
2018-08-25T10:49:43.225Z,10.07
2018-08-25T10:52:11.445Z,12.43
2018-08-25T10:54:39.550Z,10.87
2018-08-25T10:57:07.655Z,12.93
2018-08-25T10:59:35.756Z,14.00
2018-08-25T11:02:03.923Z,10.43
2018-08-25T11:04:35.097Z,11.80
2018-08-25T11:07:03.211Z,10.23
2018-08-25T11:09:31.346Z,10.17
2018-08-25T11:11:59.460Z,8.50
2018-08-25T11:14:27.556Z,13.03
2018-08-25T11:16:55.731Z,9.53
2018-08-25T11:19:23.802Z,10.47
2018-08-25T11:21:51.898Z,7.63
2018-08-25T11:24:19.993Z,8.83
2018-08-25T11:26:48.105Z,12.87
2018-08-25T11:29:16.249Z,4.40
2018-08-25T11:31:44.321Z,11.93
2018-08-25T11:34:12.376Z,9.07
2018-08-25T11:36:40.428Z,6.50
2018-08-25T11:39:09.722Z,7.20
2018-08-25T11:41:37.790Z,4.50
2018-08-25T11:44:05.929Z,6.37
2018-08-25T11:46:33.990Z,5.70
2018-08-25T11:49:02.103Z,5.47
2018-08-25T11:51:30.175Z,8.67
2018-08-25T11:53:58.399Z,7.93
2018-08-25T11:56:26.635Z,9.13
2018-08-25T11:58:54.728Z,7.27
2018-08-25T12:01:23.234Z,10.40
2018-08-25T12:03:51.586Z,5.40
2018-08-25T12:06:19.778Z,10.00
2018-08-25T12:08:47.882Z,10.97
2018-08-25T12:11:15.980Z,9.17
2018-08-25T12:13:44.271Z,7.37
2018-08-25T12:16:12.366Z,6.30
2018-08-25T12:18:40.459Z,5.73
2018-08-25T12:21:08.523Z,6.07
2018-08-25T12:23:36.681Z,3.60
2018-08-25T12:26:04.720Z,3.77
2018-08-25T12:28:32.790Z,6.90
2018-08-25T12:31:00.847Z,9.43
2018-08-25T12:33:28.949Z,10.07
2018-08-25T12:35:57.005Z,8.57
2018-08-25T12:38:25.183Z,12.17
2018-08-25T12:40:53.251Z,8.57
2018-08-25T12:43:22.455Z,7.07
2018-08-25T12:45:50.578Z,13.73
2018-08-25T12:48:18.650Z,7.73
2018-08-25T12:50:46.760Z,8.70
2018-08-25T12:53:14.838Z,8.67
2018-08-25T12:55:42.958Z,6.53
2018-08-25T12:58:11.071Z,7.10
2018-08-25T13:00:39.157Z,5.60
2018-08-25T13:03:07.237Z,7.03
2018-08-25T13:05:35.313Z,4.57
2018-08-25T13:08:03.399Z,6.43
2018-08-25T13:10:31.489Z,7.33
2018-08-25T13:12:59.598Z,6.23
2018-08-25T13:15:27.754Z,5.97
2018-08-25T13:17:55.822Z,7.93
2018-08-25T13:20:23.955Z,7.00
2018-08-25T13:22:52.048Z,9.20
2018-08-25T13:25:20.165Z,5.23
2018-08-25T13:27:48.234Z,4.83
2018-08-25T13:30:16.379Z,9.40
2018-08-25T13:32:44.820Z,5.73
2018-08-25T13:35:12.877Z,6.90
2018-08-25T13:37:40.986Z,11.23
2018-08-25T13:40:09.081Z,6.40
2018-08-25T13:42:37.277Z,4.40
2018-08-25T13:45:05.351Z,11.40
2018-08-25T13:47:33.437Z,5.67
2018-08-25T13:50:02.863Z,8.87
2018-08-25T13:52:30.979Z,7.27
2018-08-25T13:54:59.046Z,4.40
2018-08-25T13:57:27.170Z,7.10
2018-08-25T13:59:55.349Z,5.90
2018-08-25T14:02:23.587Z,10.70
2018-08-25T14:04:51.676Z,5.67
2018-08-25T14:07:19.732Z,6.17
2018-08-25T14:09:48.299Z,6.07
2018-08-25T14:12:16.379Z,7.17
2018-08-25T14:14:44.479Z,4.10
2018-08-25T14:17:12.543Z,8.40
2018-08-25T14:19:40.694Z,8.13
2018-08-25T14:22:08.770Z,6.53
2018-08-25T14:24:36.879Z,4.17
2018-08-25T14:27:05.104Z,4.83
2018-08-25T14:29:33.186Z,4.10
2018-08-25T14:32:01.386Z,4.47
2018-08-25T14:34:29.472Z,6.23
2018-08-25T14:36:57.546Z,4.77
2018-08-25T14:39:25.642Z,6.80
2018-08-25T14:41:53.730Z,5.20
2018-08-25T14:44:21.873Z,6.10
2018-08-25T14:46:49.959Z,4.43
2018-08-25T14:49:18.112Z,6.87
2018-08-25T14:51:46.652Z,6.73
2018-08-25T14:54:14.726Z,7.30
2018-08-25T14:56:42.864Z,10.27
2018-08-25T14:59:10.978Z,5.83
2018-08-25T15:01:39.032Z,5.57
2018-08-25T15:04:07.111Z,5.57
2018-08-25T15:06:35.230Z,4.40
2018-08-25T15:09:03.616Z,5.80
2018-08-25T15:11:31.687Z,5.63
2018-08-25T15:13:59.915Z,5.93
2018-08-25T15:16:28.241Z,6.60
2018-08-25T15:18:56.425Z,5.80
2018-08-25T15:21:24.460Z,6.27
2018-08-25T15:23:52.592Z,4.90
2018-08-25T15:26:20.713Z,5.43
2018-08-25T15:28:48.811Z,2.77
2018-08-25T15:31:16.866Z,5.33
2018-08-25T15:33:44.935Z,3.77
2018-08-25T15:36:12.987Z,3.90
2018-08-25T15:38:41.067Z,4.37
2018-08-25T15:41:09.162Z,5.57
2018-08-25T15:43:37.199Z,7.27
2018-08-25T15:46:05.416Z,6.00
2018-08-25T15:48:33.512Z,3.40
2018-08-25T15:51:01.612Z,4.77
2018-08-25T15:53:29.681Z,5.10
2018-08-25T15:55:57.767Z,3.63
2018-08-25T15:58:25.924Z,2.90
2018-08-25T16:00:53.981Z,2.73
2018-08-25T16:03:22.077Z,1.83
2018-08-25T16:05:50.184Z,2.17
2018-08-25T16:08:18.279Z,2.40
2018-08-25T16:10:46.336Z,1.03
2018-08-25T16:13:14.413Z,3.30
2018-08-25T16:15:42.517Z,1.30
2018-08-25T16:18:10.619Z,5.30
2018-08-25T16:20:38.900Z,4.27
2018-08-25T16:23:06.976Z,5.33
2018-08-25T16:25:36.351Z,4.63
2018-08-25T16:28:04.455Z,4.47
2018-08-25T16:30:32.621Z,2.17
2018-08-25T16:33:00.791Z,2.67
2018-08-25T16:35:28.899Z,4.53
2018-08-25T16:37:57.195Z,3.83
2018-08-25T16:40:25.387Z,4.53
2018-08-25T16:42:53.481Z,3.63
2018-08-25T16:45:21.556Z,2.57
2018-08-25T16:47:51.014Z,3.43
2018-08-25T16:50:19.657Z,4.20
2018-08-25T16:52:47.763Z,5.43
2018-08-25T16:55:15.927Z,3.20
2018-08-25T16:57:43.984Z,4.13
2018-08-25T17:00:12.366Z,4.87
2018-08-25T17:02:40.445Z,5.57
2018-08-25T17:05:08.986Z,2.90
2018-08-25T17:07:37.070Z,2.43
2018-08-25T17:10:05.152Z,1.73
2018-08-25T17:12:33.256Z,4.03
2018-08-25T17:15:01.337Z,4.07
2018-08-25T17:17:29.520Z,4.43
2018-08-25T17:19:57.628Z,6.37
2018-08-25T17:22:25.730Z,4.80
2018-08-25T17:24:53.830Z,2.53
2018-08-25T17:27:21.922Z,2.30
2018-08-25T17:29:49.973Z,2.90
2018-08-25T17:32:18.100Z,2.53
2018-08-25T17:34:46.181Z,2.50
2018-08-25T17:37:14.271Z,3.40
2018-08-25T17:39:42.309Z,7.13
2018-08-25T17:42:10.383Z,4.27
2018-08-25T17:44:38.496Z,2.10
2018-08-25T17:47:06.598Z,2.50
2018-08-25T17:49:34.670Z,4.37
2018-08-25T17:52:02.825Z,3.23
2018-08-25T17:54:30.920Z,2.33
2018-08-25T17:56:59.109Z,2.23
2018-08-25T17:59:27.132Z,2.53
2018-08-25T18:01:55.211Z,2.77
2018-08-25T18:04:23.257Z,3.23
2018-08-25T18:06:51.327Z,2.53
2018-08-25T18:09:19.406Z,1.97
2018-08-25T18:11:47.543Z,4.00
2018-08-25T18:14:15.610Z,4.97
2018-08-25T18:16:43.755Z,2.50
2018-08-25T18:19:11.995Z,5.37
2018-08-25T18:21:40.377Z,3.13
2018-08-25T18:24:08.654Z,5.83
2018-08-25T18:26:36.775Z,2.27
2018-08-25T18:29:05.064Z,2.77
2018-08-25T18:31:33.168Z,3.93
2018-08-25T18:34:01.202Z,2.13
2018-08-25T18:36:29.276Z,2.43
2018-08-25T18:38:57.376Z,2.80
2018-08-25T18:41:25.453Z,2.73
2018-08-25T18:43:53.562Z,1.80
2018-08-25T18:46:21.817Z,2.67
2018-08-25T18:48:49.936Z,3.00
2018-08-25T18:51:18.062Z,2.40
2018-08-25T18:53:46.134Z,1.90
2018-08-25T18:56:14.271Z,2.30
2018-08-25T18:58:42.384Z,2.30
2018-08-25T19:01:10.429Z,3.63
2018-08-25T19:03:38.693Z,2.97
2018-08-25T19:06:06.783Z,3.50
2018-08-25T19:08:34.911Z,2.00
2018-08-25T19:11:02.936Z,6.40
2018-08-25T19:13:31.035Z,3.53
2018-08-25T19:15:59.167Z,2.40
2018-08-25T19:18:27.266Z,3.40
2018-08-25T19:20:55.459Z,2.47
2018-08-25T19:23:23.526Z,2.43
2018-08-25T19:25:51.664Z,3.67
2018-08-25T19:28:19.723Z,3.40
2018-08-25T19:30:47.836Z,2.93
2018-08-25T19:33:15.947Z,2.10
2018-08-25T19:35:44.085Z,2.87
2018-08-25T19:38:12.270Z,3.83
2018-08-25T19:40:40.367Z,2.80
2018-08-25T19:43:08.596Z,4.57
2018-08-25T19:45:36.698Z,4.30
2018-08-25T19:48:04.849Z,2.13
2018-08-25T19:50:33.073Z,2.53
2018-08-25T19:53:01.264Z,3.90
2018-08-25T19:55:29.356Z,3.37
2018-08-25T19:57:57.499Z,6.67
2018-08-25T20:00:25.710Z,5.07
2018-08-25T20:02:53.732Z,2.93
2018-08-25T20:05:21.978Z,2.57
2018-08-25T20:07:50.065Z,2.10
2018-08-25T20:10:18.113Z,2.77
2018-08-25T20:12:46.232Z,2.97
2018-08-25T20:15:14.339Z,1.80
2018-08-25T20:17:42.552Z,3.50
2018-08-25T20:20:10.643Z,1.77
2018-08-25T20:22:38.796Z,6.17
2018-08-25T20:25:07.665Z,5.37
2018-08-25T20:27:35.750Z,2.40
2018-08-25T20:30:04.068Z,2.10
2018-08-25T20:32:32.262Z,1.77
2018-08-25T20:35:00.348Z,2.33
2018-08-25T20:37:28.446Z,2.60
2018-08-25T20:39:56.529Z,2.93
2018-08-25T20:42:24.606Z,3.00
2018-08-25T20:44:52.719Z,2.63
2018-08-25T20:47:20.784Z,3.60
2018-08-25T20:49:48.984Z,2.90
2018-08-25T20:52:17.061Z,1.87
2018-08-25T20:54:45.153Z,4.43
2018-08-25T20:57:13.304Z,4.17
2018-08-25T20:59:41.489Z,2.23
2018-08-25T21:02:09.610Z,2.13
2018-08-25T21:04:37.820Z,2.47
2018-08-25T21:07:05.892Z,3.03
2018-08-25T21:09:33.954Z,5.73
2018-08-25T21:12:02.091Z,2.53
2018-08-25T21:14:30.170Z,4.50
2018-08-25T21:16:58.320Z,2.10
2018-08-25T21:19:26.454Z,3.70
2018-08-25T21:21:54.546Z,2.33
2018-08-25T21:24:22.642Z,2.90
2018-08-25T21:26:50.782Z,1.63
2018-08-25T21:29:18.891Z,2.07
2018-08-25T21:31:46.987Z,3.80
2018-08-25T21:34:15.149Z,6.13
2018-08-25T21:36:43.214Z,2.63
2018-08-25T21:39:12.487Z,1.97
2018-08-25T21:41:40.803Z,1.70
2018-08-25T21:44:09.059Z,1.60
2018-08-25T21:46:37.150Z,3.77
2018-08-25T21:49:05.223Z,1.87
2018-08-25T21:51:33.823Z,1.40
2018-08-25T21:54:01.907Z,2.03
2018-08-25T21:56:30.021Z,3.67
2018-08-25T21:58:58.153Z,1.47
2018-08-25T22:01:28.857Z,2.50
2018-08-25T22:03:56.923Z,1.93
2018-08-25T22:06:25.041Z,2.93
2018-08-25T22:08:53.275Z,1.83
2018-08-25T22:11:21.434Z,2.43
2018-08-25T22:13:49.458Z,1.70
2018-08-25T22:16:17.634Z,2.13
2018-08-25T22:18:45.954Z,1.47
2018-08-25T22:21:14.086Z,1.93
2018-08-25T22:23:42.274Z,3.43
2018-08-25T22:26:10.334Z,2.73
2018-08-25T22:28:38.551Z,2.00
2018-08-25T22:31:06.781Z,2.77
2018-08-25T22:33:34.809Z,2.33
2018-08-25T22:36:02.954Z,1.30
2018-08-25T22:38:31.068Z,1.77
2018-08-25T22:40:59.135Z,2.20
2018-08-25T22:43:27.206Z,3.20
2018-08-25T22:45:55.326Z,1.93
2018-08-25T22:48:23.449Z,4.47
2018-08-25T22:50:51.688Z,3.23
2018-08-25T22:53:19.756Z,3.63
2018-08-25T22:55:48.265Z,4.73
2018-08-25T22:58:16.379Z,2.27
2018-08-25T23:00:44.502Z,2.13
2018-08-25T23:03:12.885Z,4.00
2018-08-25T23:05:41.185Z,3.20
2018-08-25T23:08:09.282Z,1.70
2018-08-25T23:10:37.400Z,1.67
2018-08-25T23:13:05.793Z,2.37
2018-08-25T23:15:33.846Z,2.57
2018-08-25T23:18:01.972Z,1.87
2018-08-25T23:20:30.079Z,2.27
2018-08-25T23:22:58.158Z,1.57
2018-08-25T23:25:26.317Z,5.20
2018-08-25T23:27:54.428Z,1.60
2018-08-25T23:30:22.519Z,2.03
2018-08-25T23:32:50.630Z,1.43
2018-08-25T23:35:18.735Z,1.97
2018-08-25T23:37:46.899Z,2.60
2018-08-25T23:40:15.005Z,2.27
2018-08-25T23:42:43.088Z,1.40
2018-08-25T23:45:11.195Z,3.00
2018-08-25T23:47:39.333Z,2.80
2018-08-25T23:50:07.441Z,2.20
2018-08-25T23:52:36.597Z,2.43
2018-08-25T23:55:06.528Z,2.37
2018-08-25T23:57:34.587Z,2.33
